createdAt,value
2023-06-10T00:00:19.056Z,20.21
2023-06-10T00:04:56.820Z,20.15
2023-06-10T00:09:16.250Z,20.16
2023-06-10T00:13:34.695Z,20.10
2023-06-10T00:17:54.363Z,20.14
2023-06-10T00:22:14.215Z,20.20
2023-06-10T00:26:31.892Z,20.18
2023-06-10T00:30:49.452Z,20.17
2023-06-10T00:35:08.626Z,20.15
2023-06-10T00:39:26.633Z,20.11
2023-06-10T00:43:45.433Z,20.10
2023-06-10T00:48:03.544Z,20.20
2023-06-10T00:52:24.087Z,20.24
2023-06-10T00:56:44.395Z,20.18
2023-06-10T01:01:04.307Z,20.08
2023-06-10T01:05:23.640Z,20.11
2023-06-10T01:09:58.532Z,20.15
2023-06-10T01:14:18.611Z,20.16
2023-06-10T01:18:37.124Z,20.12
2023-06-10T01:22:56.114Z,20.15
2023-06-10T01:27:17.458Z,20.14
2023-06-10T01:32:03.435Z,20.14
2023-06-10T01:36:22.981Z,20.17
2023-06-10T01:40:41.947Z,20.14
2023-06-10T01:45:00.688Z,20.17
2023-06-10T01:49:18.441Z,20.18
2023-06-10T01:53:36.851Z,20.15
2023-06-10T01:57:55.543Z,20.12
2023-06-10T02:02:13.740Z,20.14
2023-06-10T02:06:32.743Z,20.16
2023-06-10T02:10:51.408Z,20.22
2023-06-10T02:15:10.041Z,20.27
2023-06-10T02:19:29.393Z,20.17
2023-06-10T02:23:47.106Z,20.08
2023-06-10T02:28:07.074Z,20.08
2023-06-10T02:32:24.934Z,20.17
2023-06-10T02:36:42.964Z,20.13
2023-06-10T02:41:00.571Z,20.19
2023-06-10T02:45:20.693Z,20.17
2023-06-10T02:49:38.434Z,20.16
2023-06-10T02:53:56.073Z,20.23
2023-06-10T02:58:14.062Z,20.21
2023-06-10T03:02:33.512Z,20.24
2023-06-10T03:06:52.020Z,20.21
2023-06-10T03:11:09.898Z,20.31
2023-06-10T03:15:27.830Z,20.26
2023-06-10T03:19:45.333Z,20.22
2023-06-10T03:24:04.491Z,20.23
2023-06-10T03:28:23.734Z,20.23
2023-06-10T03:32:42.669Z,20.30
2023-06-10T03:37:00.503Z,20.28
2023-06-10T03:41:18.090Z,20.22
2023-06-10T03:45:37.310Z,20.22
2023-06-10T03:49:54.927Z,20.30
2023-06-10T03:54:12.985Z,20.27
2023-06-10T03:58:31.309Z,20.27
2023-06-10T04:02:50.983Z,20.25
2023-06-10T04:07:09.978Z,20.22
2023-06-10T04:11:27.795Z,20.28
2023-06-10T04:15:45.264Z,20.31
2023-06-10T04:20:05.247Z,20.29
2023-06-10T04:24:23.575Z,20.28
2023-06-10T04:28:41.283Z,20.31
2023-06-10T04:33:00.493Z,20.39
2023-06-10T04:37:18.394Z,20.46
2023-06-10T04:41:36.276Z,20.42
2023-06-10T04:45:53.822Z,20.51
2023-06-10T04:50:13.077Z,20.57
2023-06-10T04:54:31.248Z,20.61
2023-06-10T04:58:48.853Z,20.58
2023-06-10T05:03:07.075Z,20.63
2023-06-10T05:07:25.443Z,20.55
2023-06-10T05:11:42.943Z,20.54
2023-06-10T05:16:00.756Z,20.62
2023-06-10T05:20:18.263Z,20.63
2023-06-10T05:24:36.358Z,20.57
2023-06-10T05:28:54.716Z,20.62
2023-06-10T05:33:12.424Z,20.49
2023-06-10T05:37:31.412Z,20.51
2023-06-10T05:41:49.012Z,20.47
2023-06-10T05:46:06.936Z,20.51
2023-06-10T05:50:26.536Z,20.55
2023-06-10T05:54:44.105Z,20.48
2023-06-10T05:59:03.260Z,20.49
2023-06-10T06:03:20.993Z,20.50
2023-06-10T06:07:40.279Z,20.51
2023-06-10T06:11:58.120Z,20.47
2023-06-10T06:16:16.082Z,20.46
2023-06-10T06:20:34.228Z,20.51
2023-06-10T06:24:52.710Z,20.48
2023-06-10T06:29:10.415Z,20.57
2023-06-10T06:33:28.104Z,20.48
2023-06-10T06:37:47.229Z,20.62
2023-06-10T06:42:05.548Z,20.61
2023-06-10T06:46:23.652Z,20.59
2023-06-10T06:50:43.335Z,20.62
2023-06-10T06:55:01.934Z,20.67
2023-06-10T06:59:21.158Z,20.75
2023-06-10T07:03:38.790Z,20.73
2023-06-10T07:07:57.798Z,20.75
2023-06-10T07:12:15.568Z,20.83
2023-06-10T07:16:33.369Z,20.75
2023-06-10T07:20:50.869Z,20.68
2023-06-10T07:25:09.832Z,20.55
2023-06-10T07:29:27.793Z,20.60
2023-06-10T07:33:46.199Z,20.71
2023-06-10T07:38:04.551Z,20.77
2023-06-10T07:42:22.108Z,20.90
2023-06-10T07:46:41.320Z,21.10
2023-06-10T07:50:59.075Z,21.11
2023-06-10T07:55:17.035Z,21.16
2023-06-10T07:59:37.008Z,21.28
2023-06-10T08:03:56.122Z,21.13
2023-06-10T08:08:15.672Z,21.31
2023-06-10T08:12:35.554Z,21.25
2023-06-10T08:16:54.860Z,21.31
2023-06-10T08:21:12.515Z,21.41
2023-06-10T08:25:31.145Z,21.58
2023-06-10T08:29:49.550Z,21.25
2023-06-10T08:34:07.155Z,21.40
2023-06-10T08:38:25.928Z,21.39
2023-06-10T08:42:53.097Z,21.54
2023-06-10T08:47:17.231Z,21.48
2023-06-10T08:51:37.896Z,21.46
2023-06-10T08:56:00.358Z,21.63
2023-06-10T09:00:18.469Z,21.63
2023-06-10T09:04:37.550Z,21.88
2023-06-10T09:09:00.892Z,21.84
2023-06-10T09:13:21.163Z,21.55
2023-06-10T09:17:39.370Z,21.90
2023-06-10T09:21:57.825Z,21.86
2023-06-10T09:26:17.001Z,21.89
2023-06-10T09:30:36.062Z,21.44
2023-06-10T09:34:54.537Z,21.61
2023-06-10T09:39:19.350Z,21.54
2023-06-10T09:43:55.389Z,21.74
2023-06-10T09:48:14.528Z,21.64
2023-06-10T09:52:33.119Z,21.72
2023-06-10T09:56:53.384Z,21.77
2023-06-10T10:01:14.130Z,21.66
2023-06-10T10:05:31.975Z,21.67
2023-06-10T10:09:51.824Z,21.36
2023-06-10T10:14:10.900Z,21.76
2023-06-10T10:18:32.892Z,21.91
2023-06-10T10:22:53.941Z,21.98
2023-06-10T10:27:54.019Z,21.90
2023-06-10T10:32:16.067Z,22.05
2023-06-10T10:36:34.369Z,22.28
2023-06-10T10:40:53.295Z,22.35
2023-06-10T10:45:12.446Z,22.20
2023-06-10T10:49:32.439Z,22.43
2023-06-10T10:54:15.574Z,22.60
2023-06-10T10:58:36.042Z,22.45
2023-06-10T11:02:57.385Z,22.53
2023-06-10T11:07:23.289Z,22.72
2023-06-10T11:11:51.503Z,25.24
2023-06-10T11:16:11.719Z,27.29
2023-06-10T11:20:59.849Z,23.80
2023-06-10T11:25:18.041Z,22.96
2023-06-10T11:29:35.728Z,25.12
2023-06-10T11:34:06.957Z,23.96
2023-06-10T11:38:24.764Z,24.62
2023-06-10T11:42:44.310Z,23.73
2023-06-10T11:47:01.942Z,26.13
2023-06-10T11:51:21.357Z,27.60
2023-06-10T11:55:52.645Z,26.87
2023-06-10T12:00:10.725Z,28.02
2023-06-10T12:04:28.417Z,25.33
2023-06-10T12:08:46.303Z,28.87
2023-06-10T12:13:06.833Z,29.16
2023-06-10T12:17:34.522Z,26.21
2023-06-10T12:21:54.849Z,28.27
2023-06-10T12:26:12.468Z,27.24
2023-06-10T12:30:31.358Z,25.54
2023-06-10T12:34:49.597Z,23.57
2023-06-10T12:39:07.801Z,28.18
2023-06-10T12:43:26.435Z,30.12
2023-06-10T12:47:44.101Z,28.19
2023-06-10T12:52:02.945Z,30.04
2023-06-10T12:56:21.481Z,30.68
2023-06-10T13:00:40.244Z,28.93
2023-06-10T13:04:57.558Z,24.68
2023-06-10T13:09:16.691Z,24.34
2023-06-10T13:13:36.556Z,27.29
2023-06-10T13:17:54.625Z,29.97
2023-06-10T13:22:14.175Z,29.71
2023-06-10T13:26:32.626Z,27.85
2023-06-10T13:30:51.279Z,25.67
2023-06-10T13:35:10.602Z,27.74
2023-06-10T13:39:29.125Z,23.12
2023-06-10T13:43:47.473Z,24.76
2023-06-10T13:48:08.197Z,28.25
2023-06-10T13:52:26.242Z,27.94
2023-06-10T13:56:44.033Z,26.26
2023-06-10T14:01:03.214Z,23.12
2023-06-10T14:05:21.828Z,22.19
2023-06-10T14:09:41.792Z,21.89
2023-06-10T14:14:00.913Z,21.80
2023-06-10T14:18:19.088Z,21.49
2023-06-10T14:22:37.066Z,21.36
2023-06-10T14:26:55.392Z,21.35
2023-06-10T14:31:13.101Z,21.36
2023-06-10T14:35:32.206Z,21.32
2023-06-10T14:39:49.960Z,21.24
2023-06-10T14:44:08.590Z,21.43
2023-06-10T14:48:28.928Z,21.38
2023-06-10T14:52:46.959Z,21.70
2023-06-10T14:57:04.858Z,21.83
2023-06-10T15:01:23.436Z,22.19
2023-06-10T15:05:41.140Z,22.21
2023-06-10T15:09:58.712Z,22.51
2023-06-10T15:14:16.493Z,22.07
2023-06-10T15:18:34.745Z,21.93
2023-06-10T15:22:52.731Z,21.78
2023-06-10T15:27:11.473Z,21.75
2023-06-10T15:31:29.737Z,21.80
2023-06-10T15:35:47.392Z,21.91
2023-06-10T15:40:06.671Z,21.73
2023-06-10T15:44:24.267Z,21.66
2023-06-10T15:48:43.243Z,21.66
2023-06-10T15:53:01.580Z,21.54
2023-06-10T15:57:23.456Z,21.41
2023-06-10T16:01:42.686Z,21.45
2023-06-10T16:06:01.797Z,21.46
2023-06-10T16:10:20.417Z,21.40
2023-06-10T16:14:38.020Z,21.29
2023-06-10T16:18:56.277Z,21.29
2023-06-10T16:23:14.798Z,21.44
2023-06-10T16:27:32.376Z,21.36
2023-06-10T16:31:51.336Z,21.11
2023-06-10T16:36:08.558Z,21.17
2023-06-10T16:40:26.792Z,21.15
2023-06-10T16:44:44.917Z,21.08
2023-06-10T16:49:03.527Z,21.00
2023-06-10T16:53:21.220Z,21.19
2023-06-10T16:57:39.757Z,21.08
2023-06-10T17:01:59.217Z,21.02
2023-06-10T17:06:19.586Z,21.11
2023-06-10T17:10:37.565Z,21.15
2023-06-10T17:14:55.578Z,20.97
2023-06-10T17:19:13.910Z,20.99
2023-06-10T17:23:32.002Z,20.90
2023-06-10T17:27:51.994Z,20.86
2023-06-10T17:32:10.618Z,20.83
2023-06-10T17:36:29.284Z,20.82
2023-06-10T17:40:47.088Z,20.85
2023-06-10T17:45:04.957Z,20.75
2023-06-10T17:49:31.610Z,20.78
2023-06-10T17:53:51.492Z,20.79
2023-06-10T17:58:09.562Z,20.78
2023-06-10T18:02:27.390Z,20.70
2023-06-10T18:06:46.725Z,20.64
2023-06-10T18:11:04.369Z,20.66
2023-06-10T18:15:22.536Z,20.66
2023-06-10T18:19:40.540Z,20.65
2023-06-10T18:23:58.929Z,20.67
2023-06-10T18:28:17.557Z,20.69
2023-06-10T18:32:35.728Z,20.75
2023-06-10T18:36:55.356Z,20.70
2023-06-10T18:41:13.606Z,20.73
2023-06-10T18:45:31.958Z,20.67
2023-06-10T18:49:49.707Z,20.76
2023-06-10T18:54:08.146Z,20.65
2023-06-10T18:58:25.972Z,20.66
2023-06-10T19:02:46.295Z,20.58
2023-06-10T19:07:04.719Z,20.72
2023-06-10T19:11:23.185Z,20.69
2023-06-10T19:15:42.657Z,20.61
2023-06-10T19:20:00.584Z,20.58
2023-06-10T19:24:21.418Z,20.63
2023-06-10T19:28:39.734Z,20.65
2023-06-10T19:32:58.199Z,20.60
2023-06-10T19:37:16.756Z,20.64
2023-06-10T19:41:37.139Z,20.59
2023-06-10T19:45:55.849Z,20.63
2023-06-10T19:50:15.686Z,20.63
2023-06-10T19:54:37.941Z,20.56
2023-06-10T19:58:55.075Z,20.56
2023-06-10T20:03:13.591Z,20.49
2023-06-10T20:07:32.508Z,20.51
2023-06-10T20:11:51.523Z,20.53
2023-06-10T20:16:09.231Z,20.49
2023-06-10T20:20:28.753Z,20.58
2023-06-10T20:24:48.795Z,20.53
2023-06-10T20:29:06.636Z,20.45
2023-06-10T20:33:24.937Z,20.48
2023-06-10T20:37:43.699Z,20.48
2023-06-10T20:42:01.332Z,20.40
2023-06-10T20:46:19.669Z,20.41
2023-06-10T20:50:38.343Z,20.43
2023-06-10T20:54:57.523Z,20.44
2023-06-10T20:59:16.278Z,20.34
2023-06-10T21:03:33.961Z,20.34
2023-06-10T21:07:52.490Z,20.43
2023-06-10T21:12:11.856Z,20.32
2023-06-10T21:16:31.766Z,20.40
2023-06-10T21:20:50.657Z,20.29
2023-06-10T21:25:10.465Z,20.38
2023-06-10T21:29:29.927Z,20.31
2023-06-10T21:33:48.076Z,20.29
2023-06-10T21:38:07.427Z,20.27
2023-06-10T21:42:25.078Z,20.31
2023-06-10T21:46:43.480Z,20.42
2023-06-10T21:51:01.129Z,20.29
2023-06-10T21:55:19.597Z,20.29
2023-06-10T21:59:39.769Z,20.32
2023-06-10T22:03:57.645Z,20.36
2023-06-10T22:08:16.771Z,20.24
2023-06-10T22:12:34.396Z,20.30
2023-06-10T22:16:54.184Z,20.27
2023-06-10T22:21:12.708Z,20.24
2023-06-10T22:25:30.810Z,20.33
2023-06-10T22:29:48.946Z,20.25
2023-06-10T22:34:07.289Z,20.27
2023-06-10T22:38:25.859Z,20.16
2023-06-10T22:42:42.916Z,20.29
2023-06-10T22:47:02.131Z,20.27
2023-06-10T22:51:21.178Z,20.19
2023-06-10T22:55:38.873Z,20.17
2023-06-10T22:59:57.316Z,20.26
2023-06-10T23:04:15.024Z,20.18
2023-06-10T23:08:33.175Z,20.36
2023-06-10T23:12:51.503Z,20.26
2023-06-10T23:17:09.872Z,20.20
2023-06-10T23:21:35.385Z,20.14
2023-06-10T23:25:53.554Z,20.20
2023-06-10T23:30:11.615Z,20.30
2023-06-10T23:34:29.562Z,20.22
2023-06-10T23:38:47.690Z,20.16
2023-06-10T23:43:05.419Z,20.27
2023-06-10T23:47:23.571Z,20.23
2023-06-10T23:51:41.947Z,20.18
2023-06-10T23:55:59.522Z,20.21
